Latest Coastal Weather Observations for Wynyard

IDT60701

Issued at 9:45 am EDT Saturday 29 November 2014 (issued every 10 minutes, with the page automatically refreshed every 10 minutes)

About coastal observations | Map of coastal stations | Coastal observations for TAS | Marine services | Other Formats
Station Details ID: 091107 Name: WYNYARD AIRPORT Lat: -41.00 Lon: 145.73 Height: 12.0 m
Data from the previous 72 hours. | See also: Recent months at Wynyard
Date/Time
EDT
Temp

°C
Wind Pressure Rain
since 9am
mm
Weather Cloud Vis
km
Sea
Height
m
Swell
Dir
 
Speed
knots
Gust
knots
hPa Trend Height
m
Period
s
Dir
29/09:30am 16.2 E 9 12 1019.0 - 0.0 - - 10 - - - -
29/09:00am 16.2 E 8 11 1019.1 - 0.0 - - 10 - - - -
29/08:30am 15.6 E 8 12 1019.3 - 0.0 - Partly cloudy 10 - - - -
29/08:00am 15.1 E 7 11 1019.2 - 0.0 - Partly cloudy 10 - - - -
29/07:30am 14.0 SE 7 9 1019.1 - 0.0 - Partly cloudy 10 - - - -
29/07:00am 12.8 SE 6 9 1019.0 - 0.0 - Cloudy 10 - - - -
29/06:30am 11.9 SSE 7 9 1019.0 - 0.0 - Cloudy 10 - - - -
29/06:00am 11.1 SSE 6 8 1018.7 - 0.0 - Mostly cloudy 10 - - - -
29/05:30am 10.4 SSE 7 9 1018.5 - 0.0 - Partly cloudy 10 - - - -
29/05:00am 10.8 SSE 7 9 1018.6 - 0.0 - Partly cloudy 10 - - - -
29/04:30am 11.7 SSE 7 9 1018.5 - 0.0 - Cloudy 10 - - - -
29/04:00am 11.4 SSE 7 9 1018.6 - 0.0 - Partly cloudy 10 - - - -
29/03:30am 10.8 SSE 6 7 1019.0 - 0.0 - Partly cloudy 10 - - - -
29/03:00am 11.0 SSE 6 8 1019.0 - 0.0 - Partly cloudy 10 - - - -
29/02:30am 11.8 SSE 6 9 1019.0 - 0.0 - Partly cloudy 10 - - - -
29/02:26am 11.6 SSE 6 7 1019.1 - 0.0 - Partly cloudy 10 - - - -
29/02:00am 11.0 SSE 5 7 1019.2 - 0.0 - Partly cloudy 10 - - - -
29/01:30am 11.4 S 4 5 1019.3 - 0.0 - Cloudy 10 - - - -
29/01:00am 11.7 SSE 6 7 1019.7 - 0.0 - Cloudy 10 - - - -
29/12:30am 10.5 SSE 5 5 1019.7 - 0.0 - Partly cloudy 10 - - - -
29/12:22am 10.4 SSE 5 6 1019.7 - 0.0 - Partly cloudy 10 - - - -
29/12:00am 9.1 SSE 4 5 1019.7 - 0.0 - - 10 - - - -
 
Date/Time
EDT
Temp

°C
Wind Pressure Rain
since 9am
mm
Weather Cloud Vis
km
Sea
Height
m
Swell
Dir
 
Speed
knots
Gust
knots
hPa Trend Height
m
Period
s
Dir
28/11:30pm 12.0 ENE 3 5 1019.6 - 0.0 - - 10 - - - -
28/11:00pm 11.2 ENE 3 5 1019.6 - 0.0 - - 10 - - - -
28/10:30pm 11.5 S 3 6 1019.5 - 0.0 - - 10 - - - -
28/10:00pm 12.5 SSW 4 6 1019.5 - 0.0 - - 10 - - - -
28/09:30pm 12.8 S 4 5 1019.5 - 0.0 - - 10 - - - -
28/09:00pm 13.0 SSE 5 6 1019.5 - 0.0 - Mostly cloudy 10 - - - -
28/08:30pm 13.4 E 4 6 1019.5 - 0.0 - - 10 - - - -
28/08:00pm 14.7 ENE 4 6 1019.5 - 0.0 - - 10 - - - -
28/07:30pm 16.0 NNE 5 7 1019.5 - 0.0 - - 10 - - - -
28/07:00pm 17.0 NNE 4 7 1019.4 - 0.0 - - 10 - - - -
28/06:30pm 17.1 NNE 6 7 1019.4 - 0.0 - - 10 - - - -
28/06:00pm 17.4 NNW 6 8 1019.4 - 0.0 - - 10 - - - -
28/05:30pm 17.8 NW 6 10 1019.5 - 0.0 - - 10 - - - -
28/05:00pm 17.4 NNE 8 10 1019.6 - 0.0 - - 10 - - - -
28/04:30pm 17.7 NNE 7 10 1019.6 - 0.0 - - 10 - - - -
28/04:00pm 17.0 NNE 9 10 1019.9 - 0.0 - - 10 - - - -
28/03:30pm 17.5 NE 9 11 1020.0 - 0.0 - - 10 - - - -
28/03:00pm 16.8 NE 7 11 1020.4 - 0.0 - - 10 - - - -
28/02:30pm 16.3 NE 9 12 1020.6 - 0.0 - - 10 - - - -
28/02:00pm 16.6 NE 9 12 1020.9 - 0.0 - - 10 - - - -
28/01:30pm 16.6 NNE 8 12 1021.3 - 0.0 - - 10 - - - -
28/01:00pm 17.2 NNE 9 12 1021.6 - 0.0 - - 10 - - - -
28/12:30pm 16.9 NE 10 13 1021.6 - 0.0 - - 10 - - - -
28/12:00pm 17.3 NE 10 13 1021.8 - 0.0 - - 10 - - - -
28/11:30am 17.0 NE 11 13 1021.9 - 0.0 - Partly cloudy 10 - - - -
28/11:00am 16.3 ENE 10 13 1022.0 - 0.0 - - 10 - - - -
28/10:30am 17.0 E 9 12 1022.2 - 0.0 - - 10 - - - -
28/10:00am 16.6 E 9 14 1022.5 - 0.0 - Partly cloudy 10 - - - -
28/09:30am 16.1 E 10 13 1022.6 - 0.0 - Partly cloudy 10 - - - -
28/09:00am 16.5 E 8 11 1022.8 - 0.0 - Cloudy 10 - - - -
28/08:30am 15.5 E 7 9 1022.8 - 0.0 - Partly cloudy 10 - - - -
28/08:00am 15.1 SE 6 9 1022.6 - 0.0 - Partly cloudy 10 - - - -
28/07:30am 13.7 SSE 7 10 1022.5 - 0.0 - Partly cloudy 10 - - - -
28/07:00am 13.5 SSE 5 7 1022.4 - 0.0 - Partly cloudy 10 - - - -
28/06:30am 12.4 SSE 7 8 1022.4 - 0.0 - Partly cloudy 10 - - - -
28/06:00am 12.3 S 5 7 1022.4 - 0.0 - Mostly cloudy 10 - - - -
28/05:30am 12.5 SSE 6 8 1022.2 - 0.0 - Cloudy 10 - - - -
28/05:00am 12.4 SE 7 9 1022.1 - 0.0 - Cloudy 10 - - - -
28/04:30am 11.9 SE 7 10 1021.7 - 0.0 - Partly cloudy 10 - - - -
28/04:00am 12.4 SE 8 11 1021.8 - 0.0 - Partly cloudy 10 - - - -
28/03:30am 12.7 SE 7 10 1021.9 - 0.0 - Partly cloudy 10 - - - -
28/03:00am 13.2 SE 8 13 1022.1 - 0.0 - Cloudy 10 - - - -
28/02:30am 13.5 SE 10 15 1022.3 - 0.0 - Cloudy 10 - - - -
28/02:17am 13.7 SSE 9 12 1022.3 - 0.0 - Cloudy 10 - - - -
28/02:00am 13.8 ESE 11 16 1022.3 - 0.0 - Cloudy 10 - - - -
28/01:30am 13.9 SE 9 13 1022.4 - 0.0 - Cloudy 10 - - - -
28/01:00am 14.1 SE 11 16 1022.5 - 0.0 - Cloudy 10 - - - -
28/12:30am 14.2 SE 10 13 1022.7 - 0.0 - Cloudy 10 - - - -
28/12:00am 13.5 S 9 12 1022.9 - 0.0 - Cloudy 10 - - - -
 
Date/Time
EDT
Temp

°C
Wind Pressure Rain
since 9am
mm
Weather Cloud Vis
km
Sea
Height
m
Swell
Dir
 
Speed
knots
Gust
knots
hPa Trend Height
m
Period
s
Dir
27/11:30pm 12.8 S 8 10 1022.8 - 0.0 - Partly cloudy 10 - - - -
27/11:23pm 12.0 SSW 7 10 1022.7 - 0.0 - Partly cloudy 10 - - - -
27/11:00pm 10.0 SSE 6 7 1022.6 - 0.0 - - 10 - - - -
27/10:30pm 10.9 SSW 2 5 1022.5 - 0.0 - - 10 - - - -
27/10:00pm 10.4 SW 6 8 1022.1 - 0.0 - - 10 - - - -
27/09:30pm 13.4 SSW 4 7 1022.1 - 0.0 - - 10 - - - -
27/09:00pm 15.0 SW 5 9 1021.9 - 0.0 - - 10 - - - -
27/08:30pm 14.6 SW 6 8 1021.7 - 0.0 - - 10 - - - -
27/08:00pm 17.3 SW 7 11 1021.7 - 0.0 - - 10 - - - -
27/07:30pm 18.8 SW 13 17 1021.4 - 0.0 - - 10 - - - -
27/07:00pm 19.9 SW 12 16 1021.4 - 0.0 - - 10 - - - -
27/06:30pm 20.4 SSW 11 16 1021.3 - 0.0 - - 10 - - - -
27/06:00pm 20.9 SSW 12 17 1021.2 - 0.0 - - 10 - - - -
27/05:30pm 21.3 SSW 13 17 1021.3 - 0.0 - - 10 - - - -
27/05:00pm 22.1 SSW 12 16 1021.4 - 0.0 - - 10 - - - -
27/04:30pm 21.8 SSW 11 17 1021.5 - 0.0 - - 10 - - - -
27/04:00pm 22.1 S 12 19 1021.5 - 0.0 - - 10 - - - -
27/03:30pm 22.5 S 13 19 1021.8 - 0.0 - - 10 - - - -
27/03:00pm 20.7 NE 6 8 1022.1 - 0.0 - - 10 - - - -
27/02:30pm 20.8 NE 10 12 1022.2 - 0.0 - - 10 - - - -
27/02:00pm 20.3 SW 5 8 1022.5 - 0.0 - - 10 - - - -
27/01:30pm 20.2 SSW 7 12 1022.8 - 0.0 - - 10 - - - -
27/01:00pm 19.8 SW 6 13 1022.9 - 0.0 - - 10 - - - -
27/12:30pm 19.3 SW 9 12 1023.2 - 0.0 - - 10 - - - -
27/12:00pm 18.6 SW 14 23 1023.4 - 0.0 - - 10 - - - -
27/11:30am 18.7 SSW 11 23 1023.5 - 0.0 - - 10 - - - -
27/11:00am 17.7 SSW 10 17 1023.8 - 0.0 - - 10 - - - -
27/10:30am 16.4 S 12 17 1024.1 - 0.0 - - 10 - - - -
27/10:00am 15.3 SSW 14 21 1024.3 - 0.0 - - 10 - - - -
27/09:30am 14.6 SSW 11 17 1024.6 - 0.0 - - 10 - - - -
27/09:00am 13.8 SSW 12 19 1024.6 - 0.0 - - 10 - - - -
27/08:30am 12.8 SSW 12 23 1024.2 - 0.0 - - 10 - - - -
27/08:00am 11.6 SSW 13 19 1024.1 - 0.0 - - 10 - - - -
27/07:30am 11.0 SSW 9 13 1023.9 - 0.0 - - 10 - - - -
27/07:00am 9.2 SW 7 11 1024.0 - 0.0 - - 10 - - - -
27/06:30am 7.4 SW 6 7 1023.7 - 0.0 - - 10 - - - -
27/06:00am 7.1 SSW 7 8 1023.4 - 0.0 - - 10 - - - -
27/05:30am 5.6 SW 8 9 1023.3 - 0.0 - - 10 - - - -
27/05:00am 6.5 SW 6 8 1023.1 - 0.0 - - 10 - - - -
27/04:30am 6.5 SW 6 7 1023.0 - 0.0 - - 10 - - - -
27/04:00am 7.2 SW 9 11 1023.0 - 0.0 - - 10 - - - -
27/03:30am 7.4 SW 9 12 1022.7 - 0.0 - - 10 - - - -
27/03:00am 9.0 SW 6 12 1022.7 - 0.0 - - 10 - - - -
27/02:30am 7.2 SW 12 14 1022.3 - 0.0 - - 10 - - - -
27/02:00am 7.0 WNW 6 7 1022.5 - 0.0 - - 10 - - - -
27/01:30am 8.2 W 3 5 1022.6 - 0.0 - - 10 - - - -
27/01:00am 9.4 W 1 4 1022.6 - 0.0 - - 10 - - - -
27/12:30am 9.6 SSW 7 10 1022.5 - 0.0 - - 10 - - - -
27/12:00am 8.8 SW 6 10 1022.5 - 0.0 - - 10 - - - -
 
Date/Time
EDT
Temp

°C
Wind Pressure Rain
since 9am
mm
Weather Cloud Vis
km
Sea
Height
m
Swell
Dir
 
Speed
knots
Gust
knots
hPa Trend Height
m
Period
s
Dir
26/11:30pm 9.4 SW 3 5 1022.4 - 0.0 - - 10 - - - -
26/11:00pm 9.5 SW 6 7 1022.5 - 0.0 - - 10 - - - -
26/10:30pm 9.2 SSW 8 10 1022.3 - 0.0 - - 10 - - - -
26/10:00pm 9.5 SSW 5 10 1022.2 - 0.0 - - 10 - - - -
26/09:30pm 11.1 SW 8 14 1021.9 - 0.0 - Partly cloudy 10 - - - -
26/09:00pm 11.5 SSW 8 17 1021.5 - 0.0 - Mostly clear 10 - - - -
26/08:30pm 11.8 SSW 9 18 1021.5 - 0.0 - Partly cloudy 10 - - - -
26/08:00pm 12.3 SSW 11 16 1021.1 - 0.0 - - 10 - - - -
26/07:30pm 13.2 SSW 11 19 1020.5 - 0.0 - Partly cloudy 10 - - - -
26/07:00pm 13.7 SW 15 23 1020.1 - 0.0 - Partly cloudy 10 - - - -
26/06:32pm 14.7 SSW 16 26 1019.6 - 0.0 - Partly cloudy 10 - - - -
26/06:30pm 14.7 SSW 16 24 1019.6 - 0.0 - Partly cloudy 10 - - - -
26/06:00pm 15.3 SW 16 22 1018.9 - 0.0 - Mostly clear 10 - - - -
26/05:30pm 16.4 SW 17 25 1018.7 - 0.0 - - 10 - - - -
26/05:00pm 16.9 SSW 16 24 1018.5 - 0.0 - - 10 - - - -
26/04:30pm 17.1 SSW 16 27 1018.3 - 0.0 - - 10 - - - -
26/04:00pm 17.5 SSW 16 23 1018.0 - 0.0 - - 10 - - - -
26/03:30pm 17.5 SSW 16 21 1017.8 - 0.0 - Partly cloudy 10 - - - -
26/03:00pm 17.4 SW 17 27 1017.7 - 0.0 - Mostly clear 10 - - - -
26/02:49pm 18.4 SSW 15 25 1017.7 - 0.0 - Partly cloudy 10 - - - -
26/02:30pm 16.8 SSW 13 19 1017.6 - 0.0 - Cloudy 10 - - - -
26/02:00pm 16.4 SSW 13 22 1017.7 - 0.0 - Partly cloudy 10 - - - -
26/01:48pm 17.3 SW 15 25 1017.7 - 0.0 - Partly cloudy 10 - - - -
26/01:30pm 16.4 SSW 14 21 1017.6 - 0.0 - Partly cloudy 10 - - - -
26/01:00pm 17.9 SW 17 24 1017.5 - 0.0 - Partly cloudy 10 - - - -
26/12:30pm 16.9 SSW 15 21 1017.3 - 0.0 - Partly cloudy 10 - - - -
26/12:00pm 17.1 SW 16 24 1017.3 - 0.0 - Partly cloudy 10 - - - -
26/11:30am 15.7 SSW 15 23 1017.3 - 0.0 - Partly cloudy 10 - - - -
26/11:00am 15.8 SW 14 22 1017.2 - 0.0 - Partly cloudy 10 - - - -
26/10:30am 15.6 SW 15 24 1017.0 - 0.0 - Partly cloudy 10 - - - -
26/10:00am 14.5 SW 17 25 1016.9 - 0.0 - Partly cloudy 10 - - - -

Other Formats:

Comma delimited format used in spreadsheet applications
http://www.bom.gov.au/fwo/IDT60701/IDT60701.95957.axf

JavaScript Object Notation format (JSON) in row-major order
http://www.bom.gov.au/fwo/IDT60701/IDT60701.95957.json